sensor_id;sensor_type;location;lat;lon;timestamp;P1;durP1;ratioP1;P2;durP2;ratioP2
3726;SDS011;1879;45.876;12.300;2022-09-09T00:02:24;5.13;;;4.10;;
3726;SDS011;1879;45.876;12.300;2022-09-09T00:04:57;5.33;;;3.87;;
3726;SDS011;1879;45.876;12.300;2022-09-09T00:07:28;5.63;;;3.77;;
3726;SDS011;1879;45.876;12.300;2022-09-09T00:10:17;4.40;;;4.00;;
3726;SDS011;1879;45.876;12.300;2022-09-09T00:12:51;5.60;;;3.90;;
3726;SDS011;1879;45.876;12.300;2022-09-09T00:15:25;5.33;;;4.20;;
3726;SDS011;1879;45.876;12.300;2022-09-09T00:17:56;4.13;;;3.67;;
3726;SDS011;1879;45.876;12.300;2022-09-09T00:20:28;4.63;;;4.20;;
3726;SDS011;1879;45.876;12.300;2022-09-09T00:23:00;4.30;;;3.90;;
3726;SDS011;1879;45.876;12.300;2022-09-09T00:25:33;4.93;;;4.00;;
3726;SDS011;1879;45.876;12.300;2022-09-09T00:28:08;4.20;;;3.17;;
3726;SDS011;1879;45.876;12.300;2022-09-09T00:30:42;5.90;;;4.03;;
3726;SDS011;1879;45.876;12.300;2022-09-09T00:33:12;4.63;;;3.80;;
3726;SDS011;1879;45.876;12.300;2022-09-09T00:35:41;5.10;;;3.77;;
3726;SDS011;1879;45.876;12.300;2022-09-09T00:38:13;6.73;;;4.00;;
3726;SDS011;1879;45.876;12.300;2022-09-09T00:40:45;6.10;;;3.93;;
3726;SDS011;1879;45.876;12.300;2022-09-09T00:43:24;5.77;;;3.77;;
3726;SDS011;1879;45.876;12.300;2022-09-09T00:46:14;5.20;;;3.60;;
3726;SDS011;1879;45.876;12.300;2022-09-09T00:49:00;4.07;;;3.20;;
3726;SDS011;1879;45.876;12.300;2022-09-09T00:51:38;6.10;;;4.03;;
3726;SDS011;1879;45.876;12.300;2022-09-09T00:54:16;3.43;;;3.13;;
3726;SDS011;1879;45.876;12.300;2022-09-09T00:57:00;4.13;;;3.60;;
3726;SDS011;1879;45.876;12.300;2022-09-09T00:59:35;4.50;;;3.30;;
3726;SDS011;1879;45.876;12.300;2022-09-09T01:02:13;6.77;;;4.13;;
3726;SDS011;1879;45.876;12.300;2022-09-09T01:04:48;5.10;;;3.40;;
3726;SDS011;1879;45.876;12.300;2022-09-09T01:07:16;3.73;;;3.43;;
3726;SDS011;1879;45.876;12.300;2022-09-09T01:09:48;3.97;;;3.57;;
3726;SDS011;1879;45.876;12.300;2022-09-09T01:12:25;4.10;;;3.70;;
3726;SDS011;1879;45.876;12.300;2022-09-09T01:15:03;6.93;;;4.43;;
3726;SDS011;1879;45.876;12.300;2022-09-09T01:17:39;4.27;;;3.07;;
3726;SDS011;1879;45.876;12.300;2022-09-09T01:20:15;4.37;;;3.30;;
3726;SDS011;1879;45.876;12.300;2022-09-09T01:22:50;4.20;;;3.90;;
3726;SDS011;1879;45.876;12.300;2022-09-09T01:28:29;5.23;;;3.97;;
3726;SDS011;1879;45.876;12.300;2022-09-09T01:30:57;4.63;;;3.30;;
3726;SDS011;1879;45.876;12.300;2022-09-09T01:33:24;4.23;;;3.70;;
3726;SDS011;1879;45.876;12.300;2022-09-09T01:35:52;5.23;;;3.53;;
3726;SDS011;1879;45.876;12.300;2022-09-09T01:38:25;5.30;;;3.73;;
3726;SDS011;1879;45.876;12.300;2022-09-09T01:40:52;6.70;;;4.30;;
3726;SDS011;1879;45.876;12.300;2022-09-09T01:43:20;5.57;;;3.70;;
3726;SDS011;1879;45.876;12.300;2022-09-09T01:45:50;5.30;;;4.10;;
3726;SDS011;1879;45.876;12.300;2022-09-09T01:48:20;4.33;;;4.03;;
3726;SDS011;1879;45.876;12.300;2022-09-09T01:50:49;5.13;;;3.67;;
3726;SDS011;1879;45.876;12.300;2022-09-09T01:53:16;4.47;;;4.03;;
3726;SDS011;1879;45.876;12.300;2022-09-09T01:55:45;9.93;;;4.57;;
3726;SDS011;1879;45.876;12.300;2022-09-09T01:58:24;5.50;;;4.60;;
3726;SDS011;1879;45.876;12.300;2022-09-09T02:01:02;4.83;;;4.00;;
3726;SDS011;1879;45.876;12.300;2022-09-09T02:03:35;7.07;;;4.00;;
3726;SDS011;1879;45.876;12.300;2022-09-09T02:06:05;4.63;;;4.20;;
3726;SDS011;1879;45.876;12.300;2022-09-09T02:08:42;8.03;;;4.27;;
3726;SDS011;1879;45.876;12.300;2022-09-09T02:11:13;4.43;;;4.03;;
3726;SDS011;1879;45.876;12.300;2022-09-09T02:13:43;5.60;;;5.10;;
3726;SDS011;1879;45.876;12.300;2022-09-09T02:16:14;8.00;;;5.20;;
3726;SDS011;1879;45.876;12.300;2022-09-09T02:18:47;6.97;;;5.80;;
3726;SDS011;1879;45.876;12.300;2022-09-09T02:21:17;6.37;;;5.77;;
3726;SDS011;1879;45.876;12.300;2022-09-09T02:23:45;6.03;;;5.43;;
3726;SDS011;1879;45.876;12.300;2022-09-09T02:26:17;8.10;;;6.40;;
3726;SDS011;1879;45.876;12.300;2022-09-09T02:28:47;6.47;;;5.87;;
3726;SDS011;1879;45.876;12.300;2022-09-09T02:31:18;6.10;;;5.53;;
3726;SDS011;1879;45.876;12.300;2022-09-09T02:33:49;9.20;;;7.00;;
3726;SDS011;1879;45.876;12.300;2022-09-09T02:36:18;7.60;;;6.90;;
3726;SDS011;1879;45.876;12.300;2022-09-09T02:38:48;7.77;;;7.07;;
3726;SDS011;1879;45.876;12.300;2022-09-09T02:41:18;7.97;;;7.27;;
3726;SDS011;1879;45.876;12.300;2022-09-09T02:43:47;7.57;;;6.87;;
3726;SDS011;1879;45.876;12.300;2022-09-09T02:46:22;6.63;;;6.10;;
3726;SDS011;1879;45.876;12.300;2022-09-09T02:48:59;6.70;;;6.00;;
3726;SDS011;1879;45.876;12.300;2022-09-09T02:51:32;7.20;;;6.50;;
3726;SDS011;1879;45.876;12.300;2022-09-09T02:54:08;7.37;;;5.90;;
3726;SDS011;1879;45.876;12.300;2022-09-09T02:56:44;7.00;;;6.50;;
3726;SDS011;1879;45.876;12.300;2022-09-09T02:59:16;7.20;;;6.37;;
3726;SDS011;1879;45.876;12.300;2022-09-09T03:01:44;8.50;;;6.30;;
3726;SDS011;1879;45.876;12.300;2022-09-09T03:04:12;7.80;;;5.70;;
3726;SDS011;1879;45.876;12.300;2022-09-09T03:06:39;8.03;;;5.33;;
3726;SDS011;1879;45.876;12.300;2022-09-09T03:09:06;6.20;;;5.60;;
3726;SDS011;1879;45.876;12.300;2022-09-09T03:11:35;6.40;;;5.63;;
3726;SDS011;1879;45.876;12.300;2022-09-09T03:14:03;9.57;;;6.33;;
3726;SDS011;1879;45.876;12.300;2022-09-09T03:16:30;7.40;;;6.30;;
3726;SDS011;1879;45.876;12.300;2022-09-09T03:18:59;7.37;;;5.87;;
3726;SDS011;1879;45.876;12.300;2022-09-09T03:21:26;7.20;;;6.50;;
3726;SDS011;1879;45.876;12.300;2022-09-09T03:23:53;7.27;;;6.30;;
3726;SDS011;1879;45.876;12.300;2022-09-09T03:26:22;6.17;;;5.57;;
3726;SDS011;1879;45.876;12.300;2022-09-09T03:28:49;7.33;;;6.07;;
3726;SDS011;1879;45.876;12.300;2022-09-09T03:31:17;8.00;;;6.07;;
3726;SDS011;1879;45.876;12.300;2022-09-09T03:33:44;7.00;;;6.30;;
3726;SDS011;1879;45.876;12.300;2022-09-09T03:36:13;9.17;;;5.93;;
3726;SDS011;1879;45.876;12.300;2022-09-09T03:38:40;6.13;;;5.53;;
3726;SDS011;1879;45.876;12.300;2022-09-09T03:41:07;7.50;;;6.90;;
3726;SDS011;1879;45.876;12.300;2022-09-09T03:43:34;7.10;;;6.40;;
3726;SDS011;1879;45.876;12.300;2022-09-09T03:46:02;8.63;;;6.00;;
3726;SDS011;1879;45.876;12.300;2022-09-09T03:48:29;6.60;;;6.00;;
3726;SDS011;1879;45.876;12.300;2022-09-09T03:50:56;11.37;;;6.47;;
3726;SDS011;1879;45.876;12.300;2022-09-09T03:53:27;7.13;;;6.50;;
3726;SDS011;1879;45.876;12.300;2022-09-09T03:55:55;10.20;;;6.70;;
3726;SDS011;1879;45.876;12.300;2022-09-09T03:58:25;6.40;;;5.77;;
3726;SDS011;1879;45.876;12.300;2022-09-09T04:00:53;6.47;;;5.87;;
3726;SDS011;1879;45.876;12.300;2022-09-09T04:03:21;6.70;;;5.63;;
3726;SDS011;1879;45.876;12.300;2022-09-09T04:05:49;6.63;;;4.50;;
3726;SDS011;1879;45.876;12.300;2022-09-09T04:08:17;4.40;;;4.00;;
3726;SDS011;1879;45.876;12.300;2022-09-09T04:10:46;8.00;;;4.50;;
3726;SDS011;1879;45.876;12.300;2022-09-09T04:13:14;4.70;;;4.37;;
3726;SDS011;1879;45.876;12.300;2022-09-09T04:15:43;4.93;;;4.47;;
3726;SDS011;1879;45.876;12.300;2022-09-09T04:18:16;5.57;;;5.07;;
3726;SDS011;1879;45.876;12.300;2022-09-09T04:20:43;4.83;;;4.43;;
3726;SDS011;1879;45.876;12.300;2022-09-09T04:23:12;26.23;;;10.50;;
3726;SDS011;1879;45.876;12.300;2022-09-09T04:25:42;54.07;;;19.53;;
3726;SDS011;1879;45.876;12.300;2022-09-09T04:28:12;21.30;;;9.37;;
3726;SDS011;1879;45.876;12.300;2022-09-09T04:30:39;16.47;;;8.03;;
3726;SDS011;1879;45.876;12.300;2022-09-09T04:33:06;17.97;;;7.17;;
3726;SDS011;1879;45.876;12.300;2022-09-09T04:35:34;16.63;;;6.90;;
3726;SDS011;1879;45.876;12.300;2022-09-09T04:38:02;6.47;;;5.40;;
3726;SDS011;1879;45.876;12.300;2022-09-09T04:40:29;8.57;;;5.80;;
3726;SDS011;1879;45.876;12.300;2022-09-09T04:42:58;11.87;;;5.60;;
3726;SDS011;1879;45.876;12.300;2022-09-09T04:45:26;7.17;;;5.00;;
3726;SDS011;1879;45.876;12.300;2022-09-09T04:47:53;8.53;;;4.00;;
3726;SDS011;1879;45.876;12.300;2022-09-09T04:50:24;4.63;;;4.17;;
3726;SDS011;1879;45.876;12.300;2022-09-09T04:52:51;5.77;;;4.07;;
3726;SDS011;1879;45.876;12.300;2022-09-09T04:55:18;5.10;;;4.60;;
3726;SDS011;1879;45.876;12.300;2022-09-09T04:57:45;5.87;;;4.77;;
3726;SDS011;1879;45.876;12.300;2022-09-09T05:00:15;4.87;;;4.37;;
3726;SDS011;1879;45.876;12.300;2022-09-09T05:02:44;6.80;;;4.53;;
3726;SDS011;1879;45.876;12.300;2022-09-09T05:05:11;6.57;;;4.00;;
3726;SDS011;1879;45.876;12.300;2022-09-09T05:07:38;8.47;;;4.23;;
3726;SDS011;1879;45.876;12.300;2022-09-09T05:10:05;5.53;;;3.93;;
3726;SDS011;1879;45.876;12.300;2022-09-09T05:12:32;6.53;;;3.90;;
3726;SDS011;1879;45.876;12.300;2022-09-09T05:14:59;5.63;;;3.30;;
3726;SDS011;1879;45.876;12.300;2022-09-09T05:17:28;5.50;;;3.63;;
3726;SDS011;1879;45.876;12.300;2022-09-09T05:19:55;8.10;;;4.43;;
3726;SDS011;1879;45.876;12.300;2022-09-09T05:22:21;6.13;;;4.60;;
3726;SDS011;1879;45.876;12.300;2022-09-09T05:24:49;6.73;;;3.90;;
3726;SDS011;1879;45.876;12.300;2022-09-09T05:27:16;6.67;;;3.70;;
3726;SDS011;1879;45.876;12.300;2022-09-09T05:29:44;8.17;;;4.27;;
3726;SDS011;1879;45.876;12.300;2022-09-09T05:32:11;4.10;;;3.80;;
3726;SDS011;1879;45.876;12.300;2022-09-09T05:34:41;6.77;;;3.70;;
3726;SDS011;1879;45.876;12.300;2022-09-09T05:37:08;5.40;;;3.70;;
3726;SDS011;1879;45.876;12.300;2022-09-09T05:39:35;5.20;;;4.00;;
3726;SDS011;1879;45.876;12.300;2022-09-09T05:42:03;6.80;;;4.10;;
3726;SDS011;1879;45.876;12.300;2022-09-09T05:44:30;4.40;;;4.00;;
3726;SDS011;1879;45.876;12.300;2022-09-09T05:46:57;8.43;;;4.23;;
3726;SDS011;1879;45.876;12.300;2022-09-09T05:49:24;5.10;;;3.40;;
3726;SDS011;1879;45.876;12.300;2022-09-09T05:51:53;4.03;;;3.70;;
3726;SDS011;1879;45.876;12.300;2022-09-09T05:54:20;5.90;;;3.80;;
3726;SDS011;1879;45.876;12.300;2022-09-09T05:56:46;5.07;;;3.93;;
3726;SDS011;1879;45.876;12.300;2022-09-09T05:59:14;8.00;;;3.53;;
3726;SDS011;1879;45.876;12.300;2022-09-09T06:01:41;7.67;;;3.50;;
3726;SDS011;1879;45.876;12.300;2022-09-09T06:04:10;6.33;;;3.50;;
3726;SDS011;1879;45.876;12.300;2022-09-09T06:06:37;5.83;;;4.50;;
3726;SDS011;1879;45.876;12.300;2022-09-09T06:09:08;5.80;;;3.57;;
3726;SDS011;1879;45.876;12.300;2022-09-09T06:11:36;6.10;;;3.77;;
3726;SDS011;1879;45.876;12.300;2022-09-09T06:14:05;4.43;;;3.40;;
3726;SDS011;1879;45.876;12.300;2022-09-09T06:16:33;4.50;;;4.10;;
3726;SDS011;1879;45.876;12.300;2022-09-09T06:19:02;7.27;;;3.43;;
3726;SDS011;1879;45.876;12.300;2022-09-09T06:21:30;7.67;;;4.50;;
3726;SDS011;1879;45.876;12.300;2022-09-09T06:23:59;4.60;;;3.17;;
3726;SDS011;1879;45.876;12.300;2022-09-09T06:26:28;4.30;;;3.90;;
3726;SDS011;1879;45.876;12.300;2022-09-09T06:28:59;4.07;;;3.37;;
3726;SDS011;1879;45.876;12.300;2022-09-09T06:31:28;5.40;;;3.70;;
3726;SDS011;1879;45.876;12.300;2022-09-09T06:33:56;4.57;;;3.30;;
3726;SDS011;1879;45.876;12.300;2022-09-09T06:36:25;3.40;;;3.20;;
3726;SDS011;1879;45.876;12.300;2022-09-09T06:38:53;5.33;;;4.10;;
3726;SDS011;1879;45.876;12.300;2022-09-09T06:41:21;3.70;;;3.30;;
3726;SDS011;1879;45.876;12.300;2022-09-09T06:43:52;4.70;;;4.30;;
3726;SDS011;1879;45.876;12.300;2022-09-09T06:46:21;3.40;;;3.10;;
3726;SDS011;1879;45.876;12.300;2022-09-09T06:48:48;4.10;;;3.73;;
3726;SDS011;1879;45.876;12.300;2022-09-09T06:51:16;6.07;;;4.10;;
3726;SDS011;1879;45.876;12.300;2022-09-09T06:53:44;6.47;;;3.43;;
3726;SDS011;1879;45.876;12.300;2022-09-09T06:56:18;8.03;;;4.23;;
3726;SDS011;1879;45.876;12.300;2022-09-09T06:58:48;5.10;;;3.40;;
3726;SDS011;1879;45.876;12.300;2022-09-09T07:01:19;4.87;;;3.47;;
3726;SDS011;1879;45.876;12.300;2022-09-09T07:03:47;5.30;;;3.00;;
3726;SDS011;1879;45.876;12.300;2022-09-09T07:06:17;4.93;;;3.80;;
3726;SDS011;1879;45.876;12.300;2022-09-09T07:08:48;4.80;;;3.83;;
3726;SDS011;1879;45.876;12.300;2022-09-09T07:11:18;5.60;;;3.30;;
3726;SDS011;1879;45.876;12.300;2022-09-09T07:13:45;4.23;;;3.43;;
3726;SDS011;1879;45.876;12.300;2022-09-09T07:16:13;4.30;;;2.77;;
3726;SDS011;1879;45.876;12.300;2022-09-09T07:18:43;5.10;;;3.20;;
3726;SDS011;1879;45.876;12.300;2022-09-09T07:21:11;4.30;;;3.40;;
3726;SDS011;1879;45.876;12.300;2022-09-09T07:23:39;9.93;;;3.90;;
3726;SDS011;1879;45.876;12.300;2022-09-09T07:26:07;7.57;;;3.67;;
3726;SDS011;1879;45.876;12.300;2022-09-09T07:28:35;5.00;;;3.10;;
3726;SDS011;1879;45.876;12.300;2022-09-09T07:31:04;4.67;;;2.73;;
3726;SDS011;1879;45.876;12.300;2022-09-09T07:33:32;3.20;;;2.50;;
3726;SDS011;1879;45.876;12.300;2022-09-09T07:36:06;6.10;;;3.20;;
3726;SDS011;1879;45.876;12.300;2022-09-09T07:38:37;2.83;;;2.53;;
3726;SDS011;1879;45.876;12.300;2022-09-09T07:41:06;3.43;;;3.00;;
3726;SDS011;1879;45.876;12.300;2022-09-09T07:43:37;6.80;;;2.73;;
3726;SDS011;1879;45.876;12.300;2022-09-09T07:46:06;6.07;;;3.20;;
3726;SDS011;1879;45.876;12.300;2022-09-09T07:48:33;3.50;;;2.53;;
3726;SDS011;1879;45.876;12.300;2022-09-09T07:51:06;5.00;;;2.30;;
3726;SDS011;1879;45.876;12.300;2022-09-09T07:53:35;6.00;;;2.70;;
3726;SDS011;1879;45.876;12.300;2022-09-09T07:56:04;5.87;;;3.10;;
3726;SDS011;1879;45.876;12.300;2022-09-09T07:58:32;4.47;;;3.03;;
3726;SDS011;1879;45.876;12.300;2022-09-09T08:00:59;4.63;;;2.70;;
3726;SDS011;1879;45.876;12.300;2022-09-09T08:03:26;3.17;;;2.90;;
3726;SDS011;1879;45.876;12.300;2022-09-09T08:05:59;4.53;;;2.70;;
3726;SDS011;1879;45.876;12.300;2022-09-09T08:08:29;6.07;;;2.77;;
3726;SDS011;1879;45.876;12.300;2022-09-09T08:11:05;4.00;;;2.37;;
3726;SDS011;1879;45.876;12.300;2022-09-09T08:13:34;6.40;;;4.00;;
3726;SDS011;1879;45.876;12.300;2022-09-09T08:16:08;4.67;;;3.50;;
3726;SDS011;1879;45.876;12.300;2022-09-09T08:18:37;4.30;;;2.90;;
3726;SDS011;1879;45.876;12.300;2022-09-09T08:21:05;3.17;;;2.87;;
3726;SDS011;1879;45.876;12.300;2022-09-09T08:23:35;3.87;;;2.73;;
3726;SDS011;1879;45.876;12.300;2022-09-09T08:26:05;5.13;;;2.93;;
3726;SDS011;1879;45.876;12.300;2022-09-09T08:28:34;2.40;;;2.20;;
3726;SDS011;1879;45.876;12.300;2022-09-09T08:31:05;4.30;;;2.77;;
3726;SDS011;1879;45.876;12.300;2022-09-09T08:33:33;8.03;;;3.00;;
3726;SDS011;1879;45.876;12.300;2022-09-09T08:36:01;4.00;;;2.60;;
3726;SDS011;1879;45.876;12.300;2022-09-09T08:38:28;3.70;;;2.70;;
3726;SDS011;1879;45.876;12.300;2022-09-09T08:40:58;3.90;;;2.37;;
3726;SDS011;1879;45.876;12.300;2022-09-09T08:43:37;5.43;;;2.63;;
3726;SDS011;1879;45.876;12.300;2022-09-09T08:46:05;3.60;;;2.20;;
3726;SDS011;1879;45.876;12.300;2022-09-09T08:48:44;2.90;;;2.43;;
3726;SDS011;1879;45.876;12.300;2022-09-09T08:51:18;3.97;;;2.30;;
3726;SDS011;1879;45.876;12.300;2022-09-09T08:53:47;3.00;;;2.70;;
3726;SDS011;1879;45.876;12.300;2022-09-09T08:56:21;3.77;;;2.47;;
3726;SDS011;1879;45.876;12.300;2022-09-09T08:58:50;4.13;;;2.40;;
3726;SDS011;1879;45.876;12.300;2022-09-09T09:01:25;2.77;;;2.50;;
3726;SDS011;1879;45.876;12.300;2022-09-09T09:04:05;3.47;;;2.50;;
3726;SDS011;1879;45.876;12.300;2022-09-09T09:06:43;5.80;;;2.50;;
3726;SDS011;1879;45.876;12.300;2022-09-09T09:09:18;5.77;;;2.90;;
3726;SDS011;1879;45.876;12.300;2022-09-09T09:11:53;4.90;;;2.97;;
3726;SDS011;1879;45.876;12.300;2022-09-09T09:14:26;2.97;;;2.60;;
3726;SDS011;1879;45.876;12.300;2022-09-09T09:16:56;2.93;;;2.57;;
3726;SDS011;1879;45.876;12.300;2022-09-09T09:19:25;4.73;;;2.73;;
3726;SDS011;1879;45.876;12.300;2022-09-09T09:21:58;4.00;;;2.80;;
3726;SDS011;1879;45.876;12.300;2022-09-09T09:24:34;4.33;;;2.30;;
3726;SDS011;1879;45.876;12.300;2022-09-09T09:27:11;2.70;;;2.50;;
3726;SDS011;1879;45.876;12.300;2022-09-09T09:29:40;2.90;;;2.60;;
3726;SDS011;1879;45.876;12.300;2022-09-09T09:32:10;4.20;;;2.40;;
3726;SDS011;1879;45.876;12.300;2022-09-09T09:34:40;3.47;;;2.63;;
3726;SDS011;1879;45.876;12.300;2022-09-09T09:37:11;2.80;;;2.50;;
3726;SDS011;1879;45.876;12.300;2022-09-09T09:39:43;3.27;;;2.87;;
3726;SDS011;1879;45.876;12.300;2022-09-09T09:42:12;5.50;;;2.57;;
3726;SDS011;1879;45.876;12.300;2022-09-09T09:44:42;6.30;;;2.33;;
3726;SDS011;1879;45.876;12.300;2022-09-09T09:47:10;2.70;;;2.50;;
3726;SDS011;1879;45.876;12.300;2022-09-09T09:49:39;3.77;;;2.40;;
3726;SDS011;1879;45.876;12.300;2022-09-09T09:52:17;5.00;;;2.40;;
3726;SDS011;1879;45.876;12.300;2022-09-09T09:54:49;4.43;;;2.40;;
3726;SDS011;1879;45.876;12.300;2022-09-09T09:57:18;2.33;;;2.13;;
3726;SDS011;1879;45.876;12.300;2022-09-09T09:59:59;2.90;;;2.50;;
3726;SDS011;1879;45.876;12.300;2022-09-09T10:02:31;2.87;;;2.30;;
3726;SDS011;1879;45.876;12.300;2022-09-09T10:05:05;3.33;;;2.60;;
3726;SDS011;1879;45.876;12.300;2022-09-09T10:07:38;3.60;;;2.40;;
3726;SDS011;1879;45.876;12.300;2022-09-09T10:10:05;2.50;;;2.30;;
3726;SDS011;1879;45.876;12.300;2022-09-09T10:12:43;4.63;;;2.50;;
3726;SDS011;1879;45.876;12.300;2022-09-09T10:15:26;3.30;;;2.43;;
3726;SDS011;1879;45.876;12.300;2022-09-09T10:18:02;2.60;;;2.00;;
3726;SDS011;1879;45.876;12.300;2022-09-09T10:20:41;3.67;;;2.47;;
3726;SDS011;1879;45.876;12.300;2022-09-09T10:23:21;2.83;;;2.17;;
3726;SDS011;1879;45.876;12.300;2022-09-09T10:26:03;3.03;;;2.50;;
3726;SDS011;1879;45.876;12.300;2022-09-09T10:31:44;2.63;;;2.20;;
3726;SDS011;1879;45.876;12.300;2022-09-09T10:34:19;4.00;;;2.70;;
3726;SDS011;1879;45.876;12.300;2022-09-09T10:37:01;5.13;;;2.93;;
3726;SDS011;1879;45.876;12.300;2022-09-09T10:39:38;3.40;;;2.60;;
3726;SDS011;1879;45.876;12.300;2022-09-09T10:42:07;5.47;;;3.43;;
3726;SDS011;1879;45.876;12.300;2022-09-09T10:44:43;15.67;;;6.40;;
3726;SDS011;1879;45.876;12.300;2022-09-09T10:47:34;12.63;;;6.40;;
3726;SDS011;1879;45.876;12.300;2022-09-09T10:50:16;11.90;;;5.00;;
3726;SDS011;1879;45.876;12.300;2022-09-09T10:52:53;10.60;;;4.50;;
3726;SDS011;1879;45.876;12.300;2022-09-09T10:55:27;8.03;;;4.23;;
3726;SDS011;1879;45.876;12.300;2022-09-09T10:58:02;5.70;;;3.40;;
3726;SDS011;1879;45.876;12.300;2022-09-09T11:00:36;6.63;;;3.10;;
3726;SDS011;1879;45.876;12.300;2022-09-09T11:05:44;3.40;;;2.63;;
3726;SDS011;1879;45.876;12.300;2022-09-09T11:08:14;2.57;;;2.23;;
3726;SDS011;1879;45.876;12.300;2022-09-09T11:10:45;5.53;;;2.90;;
3726;SDS011;1879;45.876;12.300;2022-09-09T11:13:21;3.20;;;2.30;;
3726;SDS011;1879;45.876;12.300;2022-09-09T11:15:55;4.67;;;2.53;;
3726;SDS011;1879;45.876;12.300;2022-09-09T11:18:27;2.80;;;2.53;;
3726;SDS011;1879;45.876;12.300;2022-09-09T11:20:58;2.63;;;2.43;;
3726;SDS011;1879;45.876;12.300;2022-09-09T11:23:29;2.50;;;1.97;;
3726;SDS011;1879;45.876;12.300;2022-09-09T11:26:06;2.30;;;2.00;;
3726;SDS011;1879;45.876;12.300;2022-09-09T11:28:42;2.50;;;2.30;;
3726;SDS011;1879;45.876;12.300;2022-09-09T11:31:30;2.80;;;2.60;;
3726;SDS011;1879;45.876;12.300;2022-09-09T11:34:17;3.03;;;2.73;;
3726;SDS011;1879;45.876;12.300;2022-09-09T11:37:00;2.57;;;2.37;;
3726;SDS011;1879;45.876;12.300;2022-09-09T11:39:58;3.20;;;2.37;;
3726;SDS011;1879;45.876;12.300;2022-09-09T11:42:35;2.13;;;1.93;;
3726;SDS011;1879;45.876;12.300;2022-09-09T11:45:09;2.43;;;1.93;;
3726;SDS011;1879;45.876;12.300;2022-09-09T11:47:52;3.47;;;1.90;;
3726;SDS011;1879;45.876;12.300;2022-09-09T11:50:33;2.13;;;1.70;;
3726;SDS011;1879;45.876;12.300;2022-09-09T11:53:14;3.50;;;2.20;;
3726;SDS011;1879;45.876;12.300;2022-09-09T11:56:05;3.10;;;1.83;;
3726;SDS011;1879;45.876;12.300;2022-09-09T11:58:39;1.53;;;1.43;;
3726;SDS011;1879;45.876;12.300;2022-09-09T12:01:28;2.20;;;1.80;;
3726;SDS011;1879;45.876;12.300;2022-09-09T12:04:09;2.23;;;1.77;;
3726;SDS011;1879;45.876;12.300;2022-09-09T12:06:53;4.67;;;1.60;;
3726;SDS011;1879;45.876;12.300;2022-09-09T12:09:25;1.60;;;1.50;;
3726;SDS011;1879;45.876;12.300;2022-09-09T12:12:07;2.37;;;1.80;;
3726;SDS011;1879;45.876;12.300;2022-09-09T12:14:54;2.30;;;1.90;;
3726;SDS011;1879;45.876;12.300;2022-09-09T12:17:46;1.93;;;1.60;;
3726;SDS011;1879;45.876;12.300;2022-09-09T12:20:17;2.33;;;2.07;;
3726;SDS011;1879;45.876;12.300;2022-09-09T12:22:50;1.57;;;1.47;;
3726;SDS011;1879;45.876;12.300;2022-09-09T12:25:46;1.70;;;1.40;;
3726;SDS011;1879;45.876;12.300;2022-09-09T12:28:35;2.10;;;1.73;;
3726;SDS011;1879;45.876;12.300;2022-09-09T12:31:10;1.60;;;1.50;;
3726;SDS011;1879;45.876;12.300;2022-09-09T12:33:47;3.80;;;1.90;;
3726;SDS011;1879;45.876;12.300;2022-09-09T12:36:15;5.60;;;1.80;;
3726;SDS011;1879;45.876;12.300;2022-09-09T12:38:45;2.80;;;1.77;;
3726;SDS011;1879;45.876;12.300;2022-09-09T12:41:19;2.60;;;1.50;;
3726;SDS011;1879;45.876;12.300;2022-09-09T12:43:47;2.20;;;1.80;;
3726;SDS011;1879;45.876;12.300;2022-09-09T12:46:18;2.23;;;1.60;;
3726;SDS011;1879;45.876;12.300;2022-09-09T12:48:52;3.03;;;1.57;;
3726;SDS011;1879;45.876;12.300;2022-09-09T12:51:23;1.83;;;1.50;;
3726;SDS011;1879;45.876;12.300;2022-09-09T12:53:53;3.77;;;1.70;;
3726;SDS011;1879;45.876;12.300;2022-09-09T12:56:21;3.03;;;1.80;;
3726;SDS011;1879;45.876;12.300;2022-09-09T12:58:52;5.00;;;1.77;;
3726;SDS011;1879;45.876;12.300;2022-09-09T13:01:21;1.97;;;1.77;;
3726;SDS011;1879;45.876;12.300;2022-09-09T13:03:50;2.10;;;1.77;;
3726;SDS011;1879;45.876;12.300;2022-09-09T13:06:19;1.67;;;1.57;;
3726;SDS011;1879;45.876;12.300;2022-09-09T13:08:49;4.63;;;1.67;;
3726;SDS011;1879;45.876;12.300;2022-09-09T13:11:17;3.00;;;2.40;;
3726;SDS011;1879;45.876;12.300;2022-09-09T13:13:50;1.93;;;1.73;;
3726;SDS011;1879;45.876;12.300;2022-09-09T13:16:19;2.83;;;1.90;;
3726;SDS011;1879;45.876;12.300;2022-09-09T13:18:49;4.03;;;1.73;;
3726;SDS011;1879;45.876;12.300;2022-09-09T13:21:17;2.67;;;1.83;;
3726;SDS011;1879;45.876;12.300;2022-09-09T13:23:49;2.50;;;1.90;;
3726;SDS011;1879;45.876;12.300;2022-09-09T13:26:21;3.60;;;1.90;;
3726;SDS011;1879;45.876;12.300;2022-09-09T13:28:49;3.83;;;1.83;;
3726;SDS011;1879;45.876;12.300;2022-09-09T13:31:21;1.77;;;1.53;;
3726;SDS011;1879;45.876;12.300;2022-09-09T13:33:49;4.07;;;2.10;;
3726;SDS011;1879;45.876;12.300;2022-09-09T13:36:26;2.40;;;2.20;;
3726;SDS011;1879;45.876;12.300;2022-09-09T13:38:57;3.10;;;1.60;;
3726;SDS011;1879;45.876;12.300;2022-09-09T13:41:34;2.80;;;2.40;;
3726;SDS011;1879;45.876;12.300;2022-09-09T13:44:02;3.40;;;2.30;;
3726;SDS011;1879;45.876;12.300;2022-09-09T13:46:32;6.63;;;2.33;;
3726;SDS011;1879;45.876;12.300;2022-09-09T13:49:02;2.10;;;1.90;;
3726;SDS011;1879;45.876;12.300;2022-09-09T13:51:45;5.40;;;2.70;;
3726;SDS011;1879;45.876;12.300;2022-09-09T13:54:18;3.43;;;2.53;;
3726;SDS011;1879;45.876;12.300;2022-09-09T13:56:46;2.53;;;2.33;;
3726;SDS011;1879;45.876;12.300;2022-09-09T13:59:15;2.87;;;2.57;;
3726;SDS011;1879;45.876;12.300;2022-09-09T14:01:44;4.27;;;2.30;;
3726;SDS011;1879;45.876;12.300;2022-09-09T14:04:12;4.70;;;2.90;;
3726;SDS011;1879;45.876;12.300;2022-09-09T14:06:39;2.77;;;2.50;;
3726;SDS011;1879;45.876;12.300;2022-09-09T14:09:06;2.50;;;2.30;;
3726;SDS011;1879;45.876;12.300;2022-09-09T14:11:38;3.83;;;2.70;;
3726;SDS011;1879;45.876;12.300;2022-09-09T14:14:05;3.20;;;2.40;;
3726;SDS011;1879;45.876;12.300;2022-09-09T14:16:32;6.20;;;2.63;;
3726;SDS011;1879;45.876;12.300;2022-09-09T14:19:02;2.47;;;2.27;;
3726;SDS011;1879;45.876;12.300;2022-09-09T14:21:29;3.13;;;2.50;;
3726;SDS011;1879;45.876;12.300;2022-09-09T14:23:57;3.90;;;3.17;;
3726;SDS011;1879;45.876;12.300;2022-09-09T14:26:24;4.80;;;2.60;;
3726;SDS011;1879;45.876;12.300;2022-09-09T14:28:55;10.80;;;3.70;;
3726;SDS011;1879;45.876;12.300;2022-09-09T14:31:22;2.93;;;2.63;;
3726;SDS011;1879;45.876;12.300;2022-09-09T14:33:50;4.10;;;3.27;;
3726;SDS011;1879;45.876;12.300;2022-09-09T14:36:18;3.60;;;3.17;;
3726;SDS011;1879;45.876;12.300;2022-09-09T14:38:45;3.97;;;2.60;;
3726;SDS011;1879;45.876;12.300;2022-09-09T14:41:13;3.60;;;2.90;;
3726;SDS011;1879;45.876;12.300;2022-09-09T14:43:42;5.53;;;2.73;;
3726;SDS011;1879;45.876;12.300;2022-09-09T14:46:12;4.40;;;2.53;;
3726;SDS011;1879;45.876;12.300;2022-09-09T14:48:41;2.87;;;2.30;;
3726;SDS011;1879;45.876;12.300;2022-09-09T14:51:09;3.57;;;2.80;;
3726;SDS011;1879;45.876;12.300;2022-09-09T14:53:37;2.60;;;1.90;;
3726;SDS011;1879;45.876;12.300;2022-09-09T14:56:05;3.93;;;2.40;;
3726;SDS011;1879;45.876;12.300;2022-09-09T14:58:34;7.37;;;2.23;;
3726;SDS011;1879;45.876;12.300;2022-09-09T15:01:02;2.53;;;1.97;;
3726;SDS011;1879;45.876;12.300;2022-09-09T15:03:31;1.93;;;1.73;;
3726;SDS011;1879;45.876;12.300;2022-09-09T15:05:58;2.67;;;1.83;;
3726;SDS011;1879;45.876;12.300;2022-09-09T15:08:31;2.87;;;1.43;;
3726;SDS011;1879;45.876;12.300;2022-09-09T15:10:59;3.70;;;2.23;;
3726;SDS011;1879;45.876;12.300;2022-09-09T15:13:27;3.70;;;2.30;;
3726;SDS011;1879;45.876;12.300;2022-09-09T15:15:53;5.37;;;2.00;;
3726;SDS011;1879;45.876;12.300;2022-09-09T15:18:20;4.73;;;1.60;;
3726;SDS011;1879;45.876;12.300;2022-09-09T15:20:49;2.60;;;1.67;;
3726;SDS011;1879;45.876;12.300;2022-09-09T15:23:16;3.60;;;1.63;;
3726;SDS011;1879;45.876;12.300;2022-09-09T15:25:50;3.07;;;1.63;;
3726;SDS011;1879;45.876;12.300;2022-09-09T15:28:18;2.10;;;1.63;;
3726;SDS011;1879;45.876;12.300;2022-09-09T15:30:47;2.83;;;1.77;;
3726;SDS011;1879;45.876;12.300;2022-09-09T15:33:14;2.47;;;1.80;;
3726;SDS011;1879;45.876;12.300;2022-09-09T15:35:42;1.50;;;1.33;;